Time;durP1;ratioP1;P1;durP2;ratioP2;P2;SDS_P1;SDS_P2;PMS_P1;PMS_P2;Temp;Humidity;BMP_temperature;BMP_pressure;BME280_temperature;BME280_humidity;BME280_pressure;Samples;Min_cycle;Max_cycle;Signal;HPM_P1;HPM_P2
2021/12/18 00:00:05;;;;;;;16.23;14.80;;;6.70;47.20;;;;;;10338253;28;20232;-83
2021/12/18 00:05:09;;;;;;;18.03;16.33;;;6.80;47.20;;;;;;10341412;28;20326;-82
2021/12/18 00:10:14;;;;;;;16.13;14.60;;;6.80;47.30;;;;;;10352008;28;20247;-82
2021/12/18 00:15:19;;;;;;;16.77;15.20;;;6.80;47.10;;;;;;10358603;28;20277;-83
2021/12/18 00:20:25;;;;;;;16.70;15.10;;;6.80;47.00;;;;;;10348149;28;20266;-82
2021/12/18 00:25:31;;;;;;;18.50;16.80;;;6.80;47.00;;;;;;10347868;28;20258;-82
2021/12/18 00:30:34;;;;;;;17.27;15.57;;;6.80;47.00;;;;;;10346469;28;20262;-83
2021/12/18 00:35:39;;;;;;;17.93;16.20;;;6.80;47.10;;;;;;10347212;28;20299;-83
2021/12/18 00:40:46;;;;;;;19.07;17.07;;;6.80;47.30;;;;;;10345831;28;20290;-82
2021/12/18 00:45:51;;;;;;;20.03;18.00;;;6.80;47.40;;;;;;10339285;28;20262;-83
2021/12/18 00:50:55;;;;;;;17.87;16.17;;;6.80;47.50;;;;;;10346012;28;20231;-82
2021/12/18 00:56:01;;;;;;;19.10;17.20;;;6.80;47.60;;;;;;10350699;28;20238;-83
2021/12/18 01:01:08;;;;;;;20.27;18.40;;;6.90;47.50;;;;;;10349649;28;20231;-82
2021/12/18 01:06:11;;;;;;;19.27;17.43;;;6.90;47.50;;;;;;10341281;28;20323;-82
2021/12/18 01:11:33;;;;;;;20.23;18.20;;;6.90;47.60;;;;;;10334346;28;20230;-83
2021/12/18 01:16:45;;;;;;;21.40;19.23;;;6.90;47.40;;;;;;10331988;28;20231;-82
2021/12/18 01:27:22;;;;;;;20.20;18.20;;;6.90;47.40;;;;;;10278667;28;20237;-82
2021/12/18 01:32:27;;;;;;;19.87;17.87;;;6.80;47.40;;;;;;10329894;28;20235;-83
2021/12/18 01:37:30;;;;;;;20.93;18.83;;;6.80;47.50;;;;;;10324590;28;20238;-83
2021/12/18 01:53:13;;;;;;;23.07;20.20;;;6.70;47.40;;;;;;10322977;28;20231;-82
2021/12/18 01:58:21;;;;;;;22.10;19.57;;;6.70;47.80;;;;;;10328847;28;20245;-82
2021/12/18 02:03:25;;;;;;;21.40;19.10;;;6.70;47.80;;;;;;10337461;28;20816;-82
2021/12/18 02:08:30;;;;;;;21.93;19.50;;;6.70;47.60;;;;;;10327069;28;20242;-83
2021/12/18 02:13:58;;;;;;;20.13;18.03;;;6.70;47.70;;;;;;10335257;28;20237;-83
2021/12/18 02:24:26;;;;;;;20.80;18.60;;;6.70;47.60;;;;;;10330030;28;20241;-83
2021/12/18 02:29:32;;;;;;;21.17;18.67;;;6.80;47.70;;;;;;10313275;28;20237;-82
2021/12/18 02:34:38;;;;;;;20.17;18.07;;;6.80;47.60;;;;;;10326400;28;20241;-83
2021/12/18 02:39:57;;;;;;;18.60;16.17;;;6.80;47.60;;;;;;10321577;28;20235;-82
2021/12/18 02:45:01;;;;;;;20.03;17.90;;;6.80;47.60;;;;;;10330334;28;20275;-83
2021/12/18 02:50:05;;;;;;;20.60;18.17;;;6.80;47.50;;;;;;10320803;28;20227;-82
2021/12/18 02:55:10;;;;;;;18.13;16.30;;;6.70;47.40;;;;;;10321401;28;20249;-82
2021/12/18 03:00:14;;;;;;;19.80;17.70;;;6.70;47.60;;;;;;10328533;28;20239;-83
2021/12/18 03:05:24;;;;;;;19.50;17.47;;;6.70;47.60;;;;;;10313841;28;20717;-82
2021/12/18 03:26:22;;;;;;;18.73;16.30;;;6.60;47.60;;;;;;10332346;28;20746;-83
2021/12/18 03:31:25;;;;;;;19.70;17.60;;;6.60;47.90;;;;;;10313167;28;20238;-82
2021/12/18 03:36:28;;;;;;;20.30;17.60;;;6.60;48.00;;;;;;10325421;28;20227;-83
2021/12/18 03:41:33;;;;;;;20.57;18.43;;;6.70;48.10;;;;;;10335360;28;20234;-83
2021/12/18 03:46:36;;;;;;;19.40;16.17;;;6.70;47.70;;;;;;10322586;28;20239;-81
2021/12/18 03:51:39;;;;;;;22.97;20.00;;;6.70;47.70;;;;;;10327483;28;20241;-83
2021/12/18 03:56:44;;;;;;;22.30;19.53;;;6.80;47.90;;;;;;10336493;28;20241;-82
2021/12/18 04:01:47;;;;;;;21.97;19.57;;;6.80;48.00;;;;;;10320636;28;20231;-82
2021/12/18 04:06:50;;;;;;;17.30;15.43;;;6.90;47.80;;;;;;10314710;28;20265;-83
2021/12/18 04:11:55;;;;;;;17.23;15.43;;;6.90;47.80;;;;;;10323223;28;20920;-83
2021/12/18 04:16:58;;;;;;;19.73;16.07;;;6.90;47.80;;;;;;10330586;28;20226;-82
2021/12/18 04:22:01;;;;;;;20.73;17.10;;;7.00;47.70;;;;;;10327029;28;20235;-83
2021/12/18 04:27:06;;;;;;;20.73;18.33;;;7.00;47.60;;;;;;10314670;28;20945;-84
2021/12/18 04:32:09;;;;;;;21.03;18.83;;;6.80;47.10;;;;;;10321726;28;20254;-82
2021/12/18 04:37:12;;;;;;;22.80;20.20;;;7.00;47.50;;;;;;10324030;28;20233;-83
2021/12/18 04:42:17;;;;;;;21.77;19.40;;;7.00;47.60;;;;;;10325089;28;20234;-83
2021/12/18 04:47:20;;;;;;;22.30;19.30;;;7.00;47.60;;;;;;10322364;28;20238;-83
2021/12/18 04:52:24;;;;;;;20.83;18.37;;;6.90;47.60;;;;;;10321203;28;20243;-83
2021/12/18 04:57:28;;;;;;;22.43;20.10;;;7.00;47.80;;;;;;10354079;28;20235;-82
2021/12/18 05:02:37;;;;;;;22.67;19.33;;;7.00;47.50;;;;;;10327182;28;20235;-82
2021/12/18 05:07:40;;;;;;;24.17;20.03;;;7.00;47.50;;;;;;10331683;28;20230;-83
2021/12/18 05:12:45;;;;;;;22.53;19.13;;;7.00;47.50;;;;;;10331124;28;20240;-83
2021/12/18 05:17:48;;;;;;;20.27;18.07;;;7.00;47.50;;;;;;10328931;28;20617;-83
2021/12/18 05:22:52;;;;;;;23.17;19.60;;;6.90;47.50;;;;;;10339724;28;20250;-83
2021/12/18 05:27:56;;;;;;;22.67;19.93;;;6.90;47.50;;;;;;10326187;28;20249;-83
2021/12/18 05:32:59;;;;;;;22.73;19.13;;;7.00;47.40;;;;;;10319163;28;20236;-82
2021/12/18 05:38:05;;;;;;;21.63;19.07;;;7.00;47.60;;;;;;10323757;28;20231;-83
2021/12/18 05:43:10;;;;;;;22.40;18.50;;;7.00;47.60;;;;;;10325634;28;20578;-83
2021/12/18 05:48:14;;;;;;;20.40;17.27;;;7.00;47.60;;;;;;10329883;28;20282;-82
2021/12/18 05:53:18;;;;;;;22.93;20.27;;;7.00;47.50;;;;;;10322035;28;20241;-83
2021/12/18 05:58:22;;;;;;;23.70;20.47;;;7.00;47.40;;;;;;10331052;28;20233;-83
2021/12/18 06:03:25;;;;;;;26.27;21.90;;;7.00;47.30;;;;;;10329266;28;20234;-83
2021/12/18 06:08:31;;;;;;;25.13;20.57;;;6.90;47.20;;;;;;10336490;28;20231;-83
2021/12/18 06:13:36;;;;;;;26.07;21.03;;;6.90;47.30;;;;;;10337244;28;20254;-82
2021/12/18 06:18:42;;;;;;;21.03;16.93;;;6.90;47.40;;;;;;10331262;28;20647;-82
2021/12/18 06:23:47;;;;;;;23.67;19.77;;;6.90;47.40;;;;;;10346003;28;20239;-82
2021/12/18 06:28:52;;;;;;;20.30;17.27;;;6.90;47.50;;;;;;10327175;28;20237;-83
2021/12/18 06:34:05;;;;;;;22.33;18.67;;;6.90;47.60;;;;;;10335111;28;20288;-83
2021/12/18 06:39:09;;;;;;;21.33;19.00;;;6.90;47.70;;;;;;10337940;28;20253;-83
2021/12/18 06:44:13;;;;;;;21.67;19.13;;;6.90;47.70;;;;;;10330695;28;20230;-81
2021/12/18 06:49:17;;;;;;;23.40;19.90;;;6.90;47.60;;;;;;10340878;28;20723;-83
2021/12/18 06:54:20;;;;;;;22.80;18.93;;;7.00;47.70;;;;;;10335092;28;20822;-82
2021/12/18 06:59:24;;;;;;;23.63;20.20;;;7.00;47.70;;;;;;10320481;28;20242;-81
2021/12/18 07:04:27;;;;;;;23.80;19.93;;;7.00;47.60;;;;;;10315170;28;20238;-83
2021/12/18 07:09:30;;;;;;;23.17;19.67;;;7.00;47.50;;;;;;10327284;28;20719;-82
2021/12/18 07:14:35;;;;;;;22.70;19.87;;;7.00;47.50;;;;;;10324392;28;20249;-82
2021/12/18 07:19:39;;;;;;;23.10;19.30;;;7.00;47.50;;;;;;10322554;28;20266;-80
2021/12/18 07:24:42;;;;;;;21.13;18.43;;;6.90;47.60;;;;;;10333909;28;20227;-81
2021/12/18 07:29:46;;;;;;;21.27;18.23;;;7.00;47.60;;;;;;10329170;28;20237;-81
2021/12/18 07:34:50;;;;;;;25.00;19.57;;;6.90;47.40;;;;;;10317941;28;20227;-81
2021/12/18 07:39:54;;;;;;;23.87;19.17;;;7.00;47.60;;;;;;10323930;28;20277;-82
2021/12/18 07:44:59;;;;;;;23.80;20.30;;;6.90;47.70;;;;;;10326258;28;20317;-81
2021/12/18 07:50:07;;;;;;;20.13;16.77;;;7.00;47.60;;;;;;10324169;28;20229;-81
2021/12/18 07:55:11;;;;;;;20.63;17.87;;;7.00;47.80;;;;;;10321975;28;20940;-81
2021/12/18 08:00:16;;;;;;;21.00;18.73;;;7.00;47.80;;;;;;10322289;28;20233;-81
2021/12/18 08:05:19;;;;;;;21.47;17.13;;;7.10;47.90;;;;;;10327796;28;20579;-80
2021/12/18 08:10:23;;;;;;;22.93;19.00;;;7.10;47.90;;;;;;10318661;28;20235;-81
2021/12/18 08:15:27;;;;;;;23.63;20.23;;;7.10;47.60;;;;;;10306947;28;20247;-81
2021/12/18 08:20:32;;;;;;;23.10;19.07;;;7.20;47.60;;;;;;10314721;28;20239;-80
2021/12/18 08:25:36;;;;;;;22.47;19.43;;;7.20;47.60;;;;;;10319375;28;20261;-81
2021/12/18 08:30:41;;;;;;;23.90;19.33;;;7.20;48.30;;;;;;10324101;28;20230;-81
2021/12/18 08:35:44;;;;;;;23.37;19.77;;;7.20;47.50;;;;;;10329547;28;20690;-81
2021/12/18 08:40:49;;;;;;;21.53;18.50;;;7.20;47.50;;;;;;10321081;28;20239;-81
2021/12/18 08:45:53;;;;;;;21.53;17.97;;;7.20;47.60;;;;;;10325883;28;20228;-81
2021/12/18 08:50:57;;;;;;;21.30;18.73;;;7.20;47.60;;;;;;10320643;28;20242;-81
2021/12/18 08:56:00;;;;;;;22.03;18.10;;;7.30;47.80;;;;;;10328705;28;20293;-81
2021/12/18 09:01:05;;;;;;;19.53;17.13;;;7.30;47.60;;;;;;10328595;28;20768;-82
2021/12/18 09:06:08;;;;;;;22.40;19.70;;;7.30;47.70;;;;;;10310519;28;20234;-78
2021/12/18 09:11:11;;;;;;;21.20;18.53;;;7.30;47.80;;;;;;10312681;28;20908;-79
2021/12/18 09:16:16;;;;;;;24.37;20.30;;;7.40;47.90;;;;;;10309598;28;20610;-78
2021/12/18 09:21:22;;;;;;;21.20;18.50;;;7.40;47.60;;;;;;10312686;28;20737;-78
2021/12/18 09:26:26;;;;;;;20.13;17.87;;;7.50;47.60;;;;;;10315848;28;20239;-78
2021/12/18 09:31:30;;;;;;;19.90;17.57;;;7.40;47.60;;;;;;10314712;28;20697;-76
2021/12/18 09:36:34;;;;;;;20.90;17.33;;;7.50;47.60;;;;;;10310693;28;20719;-78
2021/12/18 09:41:38;;;;;;;20.40;17.30;;;7.50;48.40;;;;;;10308116;28;20230;-77
2021/12/18 09:46:43;;;;;;;20.47;17.83;;;7.60;48.20;;;;;;10319958;28;20925;-79
2021/12/18 09:51:46;;;;;;;13.77;12.37;;;7.70;47.80;;;;;;10323009;28;20777;-78
2021/12/18 09:56:49;;;;;;;16.83;14.57;;;7.70;47.70;;;;;;10317844;28;20261;-78
2021/12/18 10:01:54;;;;;;;16.67;14.13;;;7.80;47.60;;;;;;10314713;28;20235;-77
2021/12/18 10:06:58;;;;;;;18.67;15.73;;;7.80;47.10;;;;;;10317162;28;20709;-77
2021/12/18 10:12:05;;;;;;;16.03;14.03;;;7.80;47.10;;;;;;10313165;28;20251;-77
2021/12/18 10:17:31;;;;;;;15.63;13.93;;;7.80;46.70;;;;;;10317302;28;20238;-77
2021/12/18 10:22:35;;;;;;;15.67;13.97;;;7.80;46.30;;;;;;10312038;28;20238;-81
2021/12/18 10:27:41;;;;;;;13.73;12.23;;;7.90;46.80;;;;;;10319863;28;20632;-81
2021/12/18 10:33:05;;;;;;;10.40;9.37;;;7.90;46.70;;;;;;10324661;28;20781;-81
2021/12/18 10:38:09;;;;;;;11.00;9.73;;;7.80;45.10;;;;;;10315657;28;20242;-81
2021/12/18 10:43:13;;;;;;;10.77;9.67;;;7.80;46.00;;;;;;10317737;28;20235;-79
2021/12/18 10:48:18;;;;;;;11.43;10.33;;;7.70;46.50;;;;;;10318700;28;20657;-78
2021/12/18 10:53:23;;;;;;;11.83;10.70;;;7.70;45.80;;;;;;10315632;28;20248;-78
2021/12/18 10:58:30;;;;;;;10.03;8.90;;;7.60;46.00;;;;;;10324995;28;20580;-78
2021/12/18 11:03:38;;;;;;;10.57;9.57;;;7.60;45.90;;;;;;10322745;28;20227;-78
2021/12/18 11:09:04;;;;;;;10.00;9.10;;;7.60;45.90;;;;;;10319862;28;20250;-78
2021/12/18 11:14:09;;;;;;;9.53;8.63;;;7.60;45.50;;;;;;10326183;28;20602;-80
2021/12/18 11:19:16;;;;;;;9.90;8.90;;;7.60;46.10;;;;;;10324602;28;20850;-79
2021/12/18 11:24:22;;;;;;;9.27;8.37;;;7.70;46.30;;;;;;10322128;28;21091;-80
2021/12/18 11:29:32;;;;;;;9.00;8.20;;;7.70;46.30;;;;;;10321915;28;20313;-79
2021/12/18 11:34:38;;;;;;;17.20;15.53;;;7.80;45.80;;;;;;10316424;28;20232;-79
2021/12/18 11:39:43;;;;;;;11.50;10.40;;;7.80;45.80;;;;;;10319917;28;20239;-77
2021/12/18 11:44:54;;;;;;;12.10;10.90;;;7.90;46.10;;;;;;10324216;28;20806;-80
2021/12/18 11:50:02;;;;;;;9.70;8.83;;;7.90;45.40;;;;;;10314865;28;20222;-78
2021/12/18 11:55:10;;;;;;;10.77;9.77;;;8.00;45.20;;;;;;10318488;28;20849;-78
2021/12/18 12:00:34;;;;;;;9.97;8.97;;;7.90;45.00;;;;;;10316575;28;21113;-78
2021/12/18 12:05:41;;;;;;;9.93;9.00;;;7.90;44.90;;;;;;10324376;28;20230;-77
2021/12/18 12:11:15;;;;;;;8.93;8.13;;;7.90;45.10;;;;;;10323132;28;20223;-78
2021/12/18 12:16:19;;;;;;;9.23;8.43;;;7.90;44.70;;;;;;10325540;28;20234;-78
2021/12/18 12:21:44;;;;;;;9.67;8.77;;;7.90;45.70;;;;;;10324561;28;20245;-77
2021/12/18 12:26:47;;;;;;;11.30;9.27;;;7.90;44.70;;;;;;10315803;28;20239;-77
2021/12/18 12:31:58;;;;;;;9.70;8.70;;;7.90;45.30;;;;;;10317306;28;20238;-77
2021/12/18 12:37:34;;;;;;;9.73;8.73;;;8.00;44.80;;;;;;10325565;28;20238;-77
2021/12/18 12:42:39;;;;;;;11.23;10.10;;;7.90;44.80;;;;;;10328352;28;20235;-76
2021/12/18 12:47:53;;;;;;;9.77;8.87;;;8.00;45.50;;;;;;10329131;28;20261;-76
2021/12/18 12:53:00;;;;;;;10.07;9.17;;;8.00;44.40;;;;;;10329743;28;20911;-76
2021/12/18 12:58:04;;;;;;;10.57;9.60;;;8.00;45.10;;;;;;10329163;28;20241;-76
2021/12/18 13:03:14;;;;;;;9.73;8.83;;;8.00;45.20;;;;;;10330241;28;20317;-77
2021/12/18 13:08:21;;;;;;;10.00;9.10;;;8.00;44.60;;;;;;10327395;28;20242;-76
2021/12/18 13:13:27;;;;;;;9.80;9.00;;;8.00;45.00;;;;;;10321916;28;20235;-76
2021/12/18 13:18:31;;;;;;;10.83;9.87;;;8.00;44.80;;;;;;10324244;28;20958;-76
2021/12/18 13:23:44;;;;;;;10.47;9.57;;;8.10;44.70;;;;;;10320372;28;20233;-76
2021/12/18 13:28:50;;;;;;;10.97;9.87;;;8.00;43.90;;;;;;10315126;28;20312;-76
2021/12/18 13:33:56;;;;;;;9.53;8.67;;;8.00;44.40;;;;;;10312856;28;20239;-77
2021/12/18 13:39:07;;;;;;;11.40;10.27;;;8.00;44.40;;;;;;10313818;28;20262;-77
2021/12/18 13:44:10;;;;;;;11.50;10.40;;;7.90;44.00;;;;;;10324871;28;20233;-77
2021/12/18 13:49:14;;;;;;;11.10;10.07;;;7.90;44.80;;;;;;10319378;28;20685;-77
2021/12/18 13:54:18;;;;;;;11.17;10.07;;;7.90;45.10;;;;;;10314209;28;20326;-76
2021/12/18 13:59:21;;;;;;;10.37;9.27;;;7.90;45.10;;;;;;10314433;28;20264;-77
2021/12/18 14:04:25;;;;;;;10.90;9.90;;;7.90;45.10;;;;;;10321226;28;20234;-77
2021/12/18 14:09:37;;;;;;;9.87;8.97;;;8.00;45.20;;;;;;10323000;28;20234;-77
2021/12/18 14:14:43;;;;;;;10.20;9.30;;;8.00;44.90;;;;;;10314695;28;20235;-78
2021/12/18 14:19:49;;;;;;;10.10;9.20;;;8.00;44.70;;;;;;10314710;28;20249;-77
2021/12/18 14:25:17;;;;;;;10.70;9.70;;;8.00;44.30;;;;;;10312499;28;20588;-76
2021/12/18 14:30:23;;;;;;;10.87;9.77;;;7.90;43.70;;;;;;10315804;28;20322;-82
2021/12/18 14:35:26;;;;;;;9.87;9.07;;;7.90;44.20;;;;;;10332947;28;20950;-82
2021/12/18 14:40:32;;;;;;;10.03;8.90;;;7.80;44.70;;;;;;10333991;28;21878;-81
2021/12/18 14:45:36;;;;;;;10.17;9.27;;;7.80;47.00;;;;;;10321901;28;20235;-80
2021/12/18 14:50:41;;;;;;;10.80;9.70;;;7.90;46.30;;;;;;10317352;28;20235;-78
2021/12/18 14:55:51;;;;;;;10.83;9.83;;;8.10;46.10;;;;;;10327308;28;20284;-79
2021/12/18 15:00:56;;;;;;;10.80;9.80;;;8.20;45.30;;;;;;10319437;28;20233;-79
2021/12/18 15:06:10;;;;;;;11.40;10.30;;;8.40;45.50;;;;;;10322129;28;20242;-79
2021/12/18 15:11:22;;;;;;;11.33;10.23;;;8.40;44.10;;;;;;10323092;28;20281;-79
2021/12/18 15:16:31;;;;;;;11.93;10.73;;;8.50;43.90;;;;;;10314079;28;20226;-78
2021/12/18 15:21:35;;;;;;;11.57;10.50;;;8.40;43.90;;;;;;10328990;28;20239;-79
2021/12/18 15:26:42;;;;;;;10.50;9.50;;;8.30;44.40;;;;;;10313131;28;20231;-78
2021/12/18 15:31:46;;;;;;;10.87;9.87;;;8.30;44.50;;;;;;10323951;28;20227;-80
2021/12/18 15:36:50;;;;;;;10.87;9.87;;;8.40;44.70;;;;;;10324931;28;20583;-81
2021/12/18 15:41:55;;;;;;;11.53;10.43;;;8.40;45.40;;;;;;10317280;28;20238;-80
2021/12/18 15:46:59;;;;;;;10.83;9.83;;;8.40;45.00;;;;;;10319866;28;20226;-79
2021/12/18 15:52:02;;;;;;;11.03;10.03;;;8.50;44.90;;;;;;10334028;28;20273;-79
2021/12/18 15:57:06;;;;;;;10.47;9.57;;;8.60;44.60;;;;;;10322287;28;20237;-80
2021/12/18 16:02:10;;;;;;;10.90;9.90;;;8.60;44.10;;;;;;10325392;28;20603;-81
2021/12/18 16:07:14;;;;;;;11.17;10.17;;;8.50;43.70;;;;;;10321313;28;20314;-77
2021/12/18 16:12:18;;;;;;;11.27;9.83;;;8.40;43.90;;;;;;10318114;28;20235;-75
2021/12/18 16:17:21;;;;;;;9.17;8.37;;;8.30;43.70;;;;;;10318023;28;20239;-77
2021/12/18 16:22:25;;;;;;;11.60;10.50;;;8.20;43.90;;;;;;10322654;28;20692;-76
2021/12/18 16:27:29;;;;;;;11.10;10.10;;;8.10;43.50;;;;;;10318242;28;20257;-77
2021/12/18 16:32:33;;;;;;;11.53;10.43;;;8.00;43.60;;;;;;10310762;28;20236;-77
2021/12/18 16:37:36;;;;;;;12.00;10.90;;;8.00;43.70;;;;;;10319563;28;20232;-76
2021/12/18 16:42:41;;;;;;;13.27;12.07;;;7.90;43.70;;;;;;10312174;28;20234;-76
2021/12/18 16:47:44;;;;;;;13.73;12.43;;;7.80;43.70;;;;;;10323960;28;20230;-76
2021/12/18 16:52:47;;;;;;;12.80;11.50;;;7.80;43.90;;;;;;10324731;28;20227;-77
2021/12/18 16:57:52;;;;;;;13.20;12.00;;;7.70;43.90;;;;;;10326665;28;20234;-75
2021/12/18 17:03:00;;;;;;;12.87;11.60;;;7.70;43.60;;;;;;10319636;28;20250;-77
2021/12/18 17:08:04;;;;;;;14.47;13.07;;;7.60;43.90;;;;;;10326886;28;20234;-77
2021/12/18 17:13:10;;;;;;;14.07;12.63;;;7.50;44.00;;;;;;10323182;28;20275;-77
2021/12/18 17:18:13;;;;;;;18.67;16.77;;;7.40;44.00;;;;;;10323769;28;20613;-77
2021/12/18 17:23:16;;;;;;;14.80;13.30;;;7.40;44.40;;;;;;10321406;28;20571;-77
2021/12/18 17:28:21;;;;;;;14.63;13.23;;;7.40;44.50;;;;;;10320487;28;20227;-77
2021/12/18 17:33:24;;;;;;;13.87;12.50;;;7.40;44.40;;;;;;10317298;28;20234;-77
2021/12/18 17:38:28;;;;;;;13.33;11.97;;;7.40;44.70;;;;;;10325835;28;20282;-77
2021/12/18 17:43:32;;;;;;;14.07;12.67;;;7.40;44.70;;;;;;10317441;28;20326;-77
2021/12/18 17:48:36;;;;;;;21.23;19.03;;;7.40;44.30;;;;;;10329734;28;20231;-77
2021/12/18 17:53:40;;;;;;;14.00;12.60;;;7.50;44.30;;;;;;10318231;28;20233;-76
2021/12/18 17:58:46;;;;;;;13.43;12.10;;;7.40;44.10;;;;;;10318433;28;20223;-76
2021/12/18 18:03:49;;;;;;;14.77;13.27;;;7.30;44.20;;;;;;10319827;28;20249;-75
2021/12/18 18:08:55;;;;;;;16.30;14.80;;;7.30;44.50;;;;;;10324299;28;20292;-76
2021/12/18 18:14:01;;;;;;;14.93;13.47;;;7.30;44.30;;;;;;10321275;28;20233;-77
2021/12/18 18:19:05;;;;;;;14.07;12.53;;;7.20;44.30;;;;;;10323020;28;20230;-76
2021/12/18 18:24:08;;;;;;;16.63;14.93;;;7.20;44.50;;;;;;10318799;28;20262;-76
2021/12/18 18:29:13;;;;;;;13.73;12.43;;;7.20;44.50;;;;;;10316714;28;20238;-75
2021/12/18 18:34:16;;;;;;;13.63;12.33;;;7.20;44.30;;;;;;10321116;28;20230;-75
2021/12/18 18:39:20;;;;;;;14.23;12.83;;;7.20;44.50;;;;;;10319066;28;20231;-75
2021/12/18 18:44:28;;;;;;;13.60;12.20;;;7.20;44.50;;;;;;10320048;28;20239;-75
2021/12/18 18:49:31;;;;;;;13.80;12.43;;;7.20;44.40;;;;;;10316573;28;20239;-75
2021/12/18 18:54:35;;;;;;;14.33;13.00;;;7.20;44.50;;;;;;10317515;28;20234;-75
2021/12/18 18:59:41;;;;;;;13.40;12.20;;;7.20;44.10;;;;;;10315836;28;20230;-75
2021/12/18 19:04:44;;;;;;;13.70;12.40;;;7.20;43.90;;;;;;10318763;28;20226;-75
2021/12/18 19:09:50;;;;;;;14.13;12.73;;;7.20;44.10;;;;;;10322397;28;20242;-75
2021/12/18 19:14:55;;;;;;;15.13;13.63;;;7.20;44.30;;;;;;10318585;28;20239;-75
2021/12/18 19:20:06;;;;;;;36.93;33.33;;;7.10;43.90;;;;;;10323287;28;20234;-75
2021/12/18 19:25:10;;;;;;;18.70;16.90;;;7.20;44.20;;;;;;10319926;28;20231;-75
2021/12/18 19:30:18;;;;;;;15.53;14.03;;;7.10;43.90;;;;;;10318202;28;20728;-75
2021/12/18 19:35:25;;;;;;;14.70;13.30;;;7.10;43.90;;;;;;10315591;28;20251;-75
2021/12/18 19:40:30;;;;;;;15.53;14.03;;;7.10;44.20;;;;;;10319322;28;20231;-75
2021/12/18 19:45:35;;;;;;;16.20;14.67;;;7.10;44.20;;;;;;10319557;28;20235;-75
2021/12/18 19:50:39;;;;;;;15.43;13.93;;;7.10;44.20;;;;;;10321378;28;21368;-78
2021/12/18 19:55:43;;;;;;;14.67;13.27;;;7.10;44.30;;;;;;10318552;28;20231;-77
2021/12/18 20:00:47;;;;;;;16.13;14.50;;;7.10;44.20;;;;;;10317600;28;20231;-78
2021/12/18 20:05:51;;;;;;;18.10;16.33;;;7.10;43.90;;;;;;10321642;28;20282;-77
2021/12/18 20:10:54;;;;;;;17.40;15.70;;;7.00;44.00;;;;;;10314348;28;20947;-77
2021/12/18 20:15:59;;;;;;;19.03;17.07;;;6.90;43.90;;;;;;10317823;28;20254;-78
2021/12/18 20:21:04;;;;;;;18.53;16.63;;;6.70;44.10;;;;;;10315702;28;20233;-78
2021/12/18 20:26:08;;;;;;;16.27;14.77;;;6.70;44.10;;;;;;10327817;28;20241;-78
2021/12/18 20:31:12;;;;;;;16.53;14.93;;;6.60;44.40;;;;;;10331267;28;20237;-78
2021/12/18 20:36:16;;;;;;;16.37;14.77;;;6.60;44.20;;;;;;10332713;28;20235;-78
2021/12/18 20:41:19;;;;;;;20.90;18.83;;;6.70;44.40;;;;;;10337838;28;20230;-80
2021/12/18 20:46:24;;;;;;;20.13;18.03;;;6.70;44.10;;;;;;10327687;28;20239;-79
2021/12/18 20:51:27;;;;;;;17.53;15.73;;;6.60;44.00;;;;;;10319535;28;20234;-77
2021/12/18 20:56:31;;;;;;;18.23;16.33;;;6.60;44.00;;;;;;10324324;28;20241;-79
2021/12/18 21:01:36;;;;;;;18.27;16.37;;;6.50;44.20;;;;;;10318975;28;20959;-78
2021/12/18 21:06:40;;;;;;;19.23;17.33;;;6.40;44.20;;;;;;10329531;28;20239;-78
2021/12/18 21:11:45;;;;;;;18.80;16.87;;;6.40;44.40;;;;;;10329893;28;20731;-79
2021/12/18 21:16:55;;;;;;;19.00;17.00;;;6.40;44.60;;;;;;10323943;28;20739;-79
2021/12/18 21:21:59;;;;;;;18.07;16.20;;;6.40;44.40;;;;;;10325083;28;20231;-76
2021/12/18 21:27:04;;;;;;;16.43;14.80;;;6.50;44.50;;;;;;10309978;28;20698;-76
2021/12/18 21:32:09;;;;;;;16.10;14.50;;;6.50;44.40;;;;;;10315207;28;20231;-77
2021/12/18 21:37:12;;;;;;;19.37;17.47;;;6.60;44.20;;;;;;10326856;28;20723;-77
2021/12/18 21:42:17;;;;;;;18.90;17.03;;;6.60;44.00;;;;;;10318599;28;20234;-77
2021/12/18 21:47:22;;;;;;;19.83;17.57;;;6.60;44.10;;;;;;10317814;28;20234;-76
2021/12/18 21:52:27;;;;;;;20.97;18.77;;;6.60;44.00;;;;;;10313920;28;20290;-76
2021/12/18 21:57:30;;;;;;;20.37;18.33;;;6.60;44.20;;;;;;10312059;28;20322;-77
2021/12/18 22:02:35;;;;;;;20.07;18.17;;;6.60;44.40;;;;;;10318623;28;20262;-76
2021/12/18 22:07:39;;;;;;;19.67;17.67;;;6.60;44.10;;;;;;10308244;28;20234;-77
2021/12/18 22:12:42;;;;;;;20.47;18.37;;;6.60;44.00;;;;;;10298795;28;20231;-77
2021/12/18 22:17:47;;;;;;;19.00;17.17;;;6.60;44.40;;;;;;10314245;28;20317;-77
2021/12/18 22:22:51;;;;;;;23.90;21.40;;;6.60;44.40;;;;;;10309420;28;20231;-77
2021/12/18 22:27:54;;;;;;;23.27;20.77;;;6.50;44.00;;;;;;10304691;28;20236;-76
2021/12/18 22:32:59;;;;;;;22.77;20.33;;;6.50;44.20;;;;;;10313962;28;20339;-76
2021/12/18 22:38:03;;;;;;;22.47;18.47;;;6.40;44.20;;;;;;10312253;28;20246;-76
2021/12/18 22:43:06;;;;;;;23.37;20.90;;;6.40;44.50;;;;;;10310917;28;20258;-78
2021/12/18 22:48:11;;;;;;;25.23;22.57;;;6.40;44.70;;;;;;10311009;28;20319;-77
2021/12/18 22:53:14;;;;;;;26.43;23.67;;;6.30;44.50;;;;;;10316039;28;20242;-77
2021/12/18 22:58:18;;;;;;;27.13;23.63;;;6.30;44.50;;;;;;10310192;28;20725;-78
2021/12/18 23:03:23;;;;;;;28.80;25.67;;;6.40;44.70;;;;;;10309104;28;20235;-77
2021/12/18 23:08:27;;;;;;;29.23;25.90;;;6.30;44.40;;;;;;10317607;28;20875;-77
2021/12/18 23:13:46;;;;;;;31.27;26.03;;;6.30;44.50;;;;;;10316785;28;20235;-78
2021/12/18 23:19:37;;;;;;;28.33;25.23;;;6.20;44.60;;;;;;10319144;28;20244;-77
2021/12/18 23:24:29;;;;;;;27.93;24.57;;;6.20;45.30;;;;;;10312137;28;20334;-78
2021/12/18 23:29:32;;;;;;;29.67;26.17;;;6.20;44.60;;;;;;10316815;28;20238;-78
2021/12/18 23:34:37;;;;;;;29.37;26.00;;;6.20;44.70;;;;;;10315930;28;20246;-78
2021/12/18 23:39:42;;;;;;;25.13;22.23;;;6.20;44.90;;;;;;10312149;28;20726;-78
2021/12/18 23:50:08;;;;;;;21.87;19.60;;;6.20;44.80;;;;;;10316116;28;20241;-77
2021/12/18 23:55:11;;;;;;;19.37;17.40;;;6.20;44.90;;;;;;10314099;28;20969;-77
